createdAt,value
2019-01-31T15:06:55.627Z,98472.61
2019-01-31T15:09:24.090Z,98478.79
2019-01-31T15:11:52.739Z,98470.73
2019-01-31T15:14:31.266Z,98478.77
2019-01-31T15:16:52.183Z,98468.63
2019-01-31T15:19:20.715Z,98476.48
2019-01-31T15:21:49.245Z,98479.43
2019-01-31T15:24:17.701Z,98482.19
2019-01-31T15:26:46.171Z,98478.95
2019-01-31T15:29:14.682Z,98474.06
2019-01-31T15:31:43.214Z,98474.06
2019-01-31T15:34:11.743Z,98485.28
2019-01-31T15:36:40.260Z,98489.31
2019-01-31T15:39:08.809Z,98489.92
2019-01-31T15:41:37.492Z,98489.31
2019-01-31T15:44:06.301Z,98494.39
2019-01-31T15:46:34.846Z,98497.02
2019-01-31T15:49:03.376Z,98496.22
2019-01-31T15:51:31.987Z,98499.23
2019-01-31T15:54:00.509Z,98500.34
2019-01-31T15:56:29.115Z,98502.09
2019-01-31T15:58:57.769Z,98505.61
2019-01-31T16:01:26.403Z,98503.50
2019-01-31T16:03:55.227Z,98508.99
2019-01-31T16:06:23.917Z,98502.94
2019-01-31T16:08:52.418Z,98510.92
2019-01-31T16:11:20.986Z,98533.00
2019-01-31T16:13:49.468Z,98512.50
2019-01-31T16:16:19.969Z,98517.22
2019-01-31T16:18:48.491Z,98511.20
2019-01-31T16:21:17.025Z,98511.20
2019-01-31T16:23:45.486Z,98522.07
2019-01-31T16:26:14.017Z,98516.30
2019-01-31T16:28:42.620Z,98516.30
2019-01-31T16:31:11.134Z,98518.56
2019-01-31T16:33:39.606Z,98515.59
2019-01-31T16:36:08.251Z,98518.15
2019-01-31T16:38:36.847Z,98518.15
2019-01-31T16:41:05.629Z,98519.45
2019-01-31T16:43:34.263Z,98518.73
2019-01-31T16:46:02.802Z,98516.85
2019-01-31T16:48:31.428Z,98512.55
2019-01-31T16:50:59.973Z,98512.55
2019-01-31T16:53:28.508Z,98515.72
2019-01-31T16:55:57.125Z,98515.72
2019-01-31T16:58:25.839Z,98510.05
2019-01-31T17:00:54.308Z,98510.05
2019-01-31T17:03:22.890Z,98510.69
2019-01-31T17:05:51.572Z,98510.91
2019-01-31T17:08:20.264Z,98505.47
2019-01-31T17:10:49.662Z,98503.04
2019-01-31T17:13:18.240Z,98506.70
2019-01-31T17:15:46.796Z,98504.98
2019-01-31T17:18:15.261Z,98511.48
2019-01-31T17:20:43.795Z,98511.48
2019-01-31T17:23:12.391Z,98504.50
2019-01-31T17:25:41.162Z,98506.09
2019-01-31T17:28:10.120Z,98514.94
2019-01-31T17:30:38.660Z,98519.41
2019-01-31T17:33:07.476Z,98519.51
2019-01-31T17:35:36.077Z,98515.34
2019-01-31T17:38:04.878Z,98511.97
2019-01-31T17:40:37.966Z,98513.91
2019-01-31T17:43:07.936Z,98511.55
2019-01-31T17:45:36.590Z,98519.39
2019-01-31T17:48:05.746Z,98520.88
2019-01-31T17:50:34.251Z,98529.19
2019-01-31T17:53:02.731Z,98530.55
2019-01-31T17:55:31.234Z,98522.77
2019-01-31T17:57:59.738Z,98529.67
2019-01-31T18:00:38.919Z,98525.73
2019-01-31T18:03:08.001Z,98528.86
2019-01-31T18:05:36.707Z,98527.68
2019-01-31T18:08:09.218Z,98537.18
2019-01-31T18:10:36.410Z,98531.63
2019-01-31T18:13:07.007Z,98535.23
2019-01-31T18:15:42.047Z,98532.25
2019-01-31T18:18:06.179Z,98529.23
2019-01-31T18:20:34.907Z,98531.42
2019-01-31T18:23:03.553Z,98534.06
2019-01-31T18:25:32.015Z,98536.31
2019-01-31T18:28:00.547Z,98536.77
2019-01-31T18:30:34.410Z,98534.25
2019-01-31T18:33:02.946Z,98537.66
2019-01-31T18:35:31.598Z,98532.86
2019-01-31T18:38:00.175Z,98539.26
2019-01-31T18:40:33.578Z,98540.48
2019-01-31T18:43:02.126Z,98537.40
2019-01-31T18:45:32.606Z,98538.23
2019-01-31T18:48:01.405Z,98536.97
2019-01-31T18:50:32.597Z,98540.02
2019-01-31T18:53:01.337Z,98537.48
2019-01-31T18:55:31.308Z,98535.45
2019-01-31T18:57:59.957Z,98536.83
2019-01-31T19:00:34.039Z,98534.80
2019-01-31T19:03:02.694Z,98541.80
2019-01-31T19:05:31.735Z,98537.98
2019-01-31T19:08:00.395Z,98534.16
2019-01-31T19:10:29.002Z,98538.08
2019-01-31T19:12:57.614Z,98541.98
2019-01-31T19:15:27.664Z,98543.33
2019-01-31T19:18:05.415Z,98541.62
2019-01-31T19:20:31.014Z,98543.78
2019-01-31T19:23:01.476Z,98540.77
2019-01-31T19:25:32.281Z,98541.12
2019-01-31T19:28:00.925Z,98531.21
2019-01-31T19:30:31.940Z,98533.77
2019-01-31T19:33:00.777Z,98528.94
2019-01-31T19:35:29.510Z,98533.98
2019-01-31T19:38:02.137Z,98534.27
2019-01-31T19:40:30.949Z,98531.63
2019-01-31T19:42:59.569Z,98529.42
2019-01-31T19:45:33.975Z,98524.61
2019-01-31T19:48:05.292Z,98536.61
2019-01-31T19:50:33.103Z,98536.61
2019-01-31T19:53:04.601Z,98535.30
2019-01-31T19:55:33.264Z,98534.84
2019-01-31T19:58:01.743Z,98531.84
2019-01-31T20:00:30.339Z,98528.50
2019-01-31T20:02:59.019Z,98531.20
2019-01-31T20:05:27.833Z,98532.48
2019-01-31T20:07:56.757Z,98533.36
2019-01-31T20:10:30.900Z,98528.31
2019-01-31T20:12:59.701Z,98531.38
2019-01-31T20:15:29.227Z,98525.84
2019-01-31T20:17:58.372Z,98525.88
2019-01-31T20:20:28.769Z,98527.68
2019-01-31T20:22:58.187Z,98530.25
2019-01-31T20:25:27.177Z,98529.33
2019-01-31T20:27:55.816Z,98528.04
2019-01-31T20:30:27.339Z,98518.62
2019-01-31T20:32:56.224Z,98529.75
2019-01-31T20:35:25.315Z,98530.23
2019-01-31T20:37:54.034Z,98531.10
2019-01-31T20:40:31.656Z,98526.30
2019-01-31T20:43:00.464Z,98523.37
2019-01-31T20:45:29.170Z,98513.95
2019-01-31T20:47:57.978Z,98521.74
2019-01-31T20:50:29.044Z,98520.94
2019-01-31T20:52:58.044Z,98520.94
2019-01-31T20:55:26.756Z,98516.65
2019-01-31T20:57:55.428Z,98519.25
2019-01-31T21:00:33.894Z,98515.80
2019-01-31T21:03:03.002Z,98527.89
2019-01-31T21:05:31.601Z,98520.04
2019-01-31T21:08:00.210Z,98520.10
2019-01-31T21:10:29.083Z,98523.13
2019-01-31T21:12:57.740Z,98521.85
2019-01-31T21:15:26.548Z,98524.02
2019-01-31T21:17:55.442Z,98525.31
2019-01-31T21:20:26.805Z,98539.03
2019-01-31T21:22:55.766Z,98534.23
2019-01-31T21:25:24.544Z,98534.16
2019-01-31T21:27:54.075Z,98533.20
2019-01-31T21:30:28.594Z,98539.98
2019-01-31T21:32:57.352Z,98540.38
2019-01-31T21:35:26.708Z,98535.95
2019-01-31T21:37:55.289Z,98536.69
2019-01-31T21:40:27.111Z,98532.30
2019-01-31T21:42:55.696Z,98523.64
2019-01-31T21:45:25.333Z,98521.36
2019-01-31T21:47:53.944Z,98517.88
2019-01-31T21:50:28.088Z,98518.27
2019-01-31T21:52:56.731Z,98525.56
2019-01-31T21:55:25.517Z,98533.77
2019-01-31T21:57:54.120Z,98527.72
2019-01-31T22:00:31.378Z,98536.83
2019-01-31T22:03:00.196Z,98534.80
2019-01-31T22:05:28.930Z,98541.77
2019-01-31T22:07:57.595Z,98550.02
2019-01-31T22:10:26.368Z,98544.50
2019-01-31T22:12:55.034Z,98537.30
2019-01-31T22:15:26.308Z,98546.84
2019-01-31T22:17:57.329Z,98549.88
2019-01-31T22:20:25.473Z,98540.39
2019-01-31T22:22:54.694Z,98553.72
2019-01-31T22:25:24.017Z,98539.09
2019-01-31T22:27:52.941Z,98542.46
2019-01-31T22:30:32.405Z,98536.86
2019-01-31T22:33:00.869Z,98534.70
2019-01-31T22:35:29.615Z,98529.52
2019-01-31T22:37:58.142Z,98535.97
2019-01-31T22:40:26.757Z,98530.39
2019-01-31T22:42:55.221Z,98530.84
2019-01-31T22:45:24.578Z,98527.47
2019-01-31T22:47:53.183Z,98523.24
2019-01-31T22:50:25.080Z,98524.16
2019-01-31T22:52:53.744Z,98531.13
2019-01-31T22:55:24.716Z,98529.42
2019-01-31T22:57:53.528Z,98519.59
2019-01-31T23:00:50.764Z,98516.70
2019-01-31T23:03:19.367Z,98520.30
2019-01-31T23:05:47.837Z,98519.51
2019-01-31T23:08:16.377Z,98518.31
2019-01-31T23:10:44.902Z,98523.16
2019-01-31T23:13:13.389Z,98526.61
2019-01-31T23:15:41.987Z,98526.67
2019-01-31T23:18:10.598Z,98520.72
2019-01-31T23:20:39.136Z,98521.61
2019-01-31T23:23:07.663Z,98517.33
2019-01-31T23:25:40.202Z,98517.33
2019-01-31T23:28:06.808Z,98518.19
2019-01-31T23:30:35.504Z,98521.65
2019-01-31T23:33:04.842Z,98528.56
2019-01-31T23:35:33.390Z,98519.56
2019-01-31T23:38:01.938Z,98526.86
2019-01-31T23:40:30.690Z,98521.22
2019-01-31T23:42:59.122Z,98520.77
2019-01-31T23:45:27.747Z,98519.02
2019-01-31T23:47:56.370Z,98517.33
2019-01-31T23:50:25.021Z,98505.28
2019-01-31T23:52:53.613Z,98501.84
2019-01-31T23:55:22.123Z,98503.55
2019-01-31T23:57:50.616Z,98511.28
